| time (UTC) | temp C | wind direction | speed KPH | gust KPH | rain 1hr cm | rain 24hr cm | rain mn cm | humidity % | barometer mb |
| 20260510203015 | 22 | 0 | 8.0 | 17.7 | 0.00 | 0.00 | 0.00 | 78 | 1015.9 |
| 20260510202015 | 22 | 338 | 11.3 | 20.9 | 0.00 | 0.00 | 0.00 | 78 | 1016.0 |
| 20260510201015 | 22 | 23 | 11.3 | 20.9 | 0.00 | 0.00 | 0.00 | 79 | 1015.9 |
| 20260510200015 | 22 | 23 | 14.5 | 24.1 | 0.00 | 0.00 | 0.00 | 80 | 1015.8 |
| 20260510195035 | 22 | 0 | 9.7 | 17.7 | 0.00 | 0.00 | 0.00 | 82 | 1016.0 |
| 20260510194015 | 22 | 45 | 12.9 | 27.4 | 0.00 | 0.00 | 0.00 | 82 | 1016.1 |
| 20260510193035 | 22 | 23 | 12.9 | 30.6 | 0.00 | 0.00 | 0.00 | 80 | 1016.3 |
| 20260510192016 | 22 | 23 | 11.3 | 27.4 | 0.00 | 0.00 | 0.00 | 80 | 1016.1 |
| 20260510191015 | 22 | 23 | 16.1 | 25.7 | 0.00 | 0.00 | 0.00 | 78 | 1015.8 |
| 20260510190016 | 22 | 23 | 9.7 | 20.9 | 0.00 | 0.00 | 0.00 | 75 | 1015.7 |
| 20260510185015 | 23 | 23 | 17.7 | 29.0 | 0.00 | 0.00 | 0.00 | 72 | 1015.5 |
| 20260510184015 | 23 | 23 | 11.3 | 19.3 | 0.00 | 0.00 | 0.00 | 75 | 1015.4 |
| 20260510183016 | 23 | 23 | 14.5 | 24.1 | 0.00 | 0.00 | 0.00 | 74 | 1015.4 |
| 20260510182015 | 22 | 23 | 11.3 | 17.7 | 0.00 | 0.00 | 0.00 | 75 | 1015.1 |
| 20260510181015 | 22 | 45 | 9.7 | 19.3 | 0.00 | 0.00 | 0.00 | 74 | 1015.2 |
| 20260510180015 | 22 | 23 | 11.3 | 22.5 | 0.00 | 0.00 | 0.00 | 71 | 1015.4 |
| 20260510175015 | 24 | 0 | 14.5 | 27.4 | 0.00 | 0.00 | 0.00 | 66 | 1015.6 |
| 20260510174035 | 26 | 23 | 4.8 | 12.9 | 0.00 | 0.00 | 0.00 | 76 | 1015.5 |
| 20260510173015 | 26 | 45 | 1.6 | 8.0 | 0.00 | 0.00 | 0.00 | 76 | 1015.5 |
| 20260510172015 | 26 | 68 | 3.2 | 8.0 | 0.00 | 0.00 | 0.00 | 76 | 1015.4 |
| 20260510171015 | 26 | 113 | 6.4 | 14.5 | 0.00 | 0.00 | 0.00 | 76 | 1015.3 |
| 20260510170015 | 26 | 90 | 8.0 | 14.5 | 0.00 | 0.00 | 0.00 | 76 | 1014.9 |
| 20260510165017 | 26 | 135 | 11.3 | 20.9 | 0.00 | 0.00 | 0.00 | 75 | 1014.5 |
| 20260510164037 | 26 | 135 | 16.1 | 25.7 | 0.00 | 0.00 | 0.00 | 74 | 1014.3 |
| 20260510163017 | 26 | 135 | 16.1 | 24.1 | 0.00 | 0.00 | 0.00 | 72 | 1014.1 |
| 20260510162017 | 26 | 113 | 16.1 | 25.7 | 0.00 | 0.00 | 0.00 | 75 | 1013.8 |
| 20260510161017 | 26 | 113 | 17.7 | 27.4 | 0.00 | 0.00 | 0.00 | 74 | 1013.6 |
| 20260510160015 | 25 | 135 | 16.1 | 22.5 | 0.00 | 0.00 | 0.00 | 76 | 1013.3 |
| 20260510155017 | 25 | 113 | 20.9 | 29.0 | 0.00 | 0.00 | 0.00 | 75 | 1013.5 |
| 20260510154017 | 25 | 113 | 19.3 | 27.4 | 0.00 | 0.00 | 0.00 | 76 | 1013.6 |
| 20260510153017 | 25 | 113 | 22.5 | 32.2 | 0.00 | 0.00 | 0.00 | 75 | 1013.6 |
| 20260510152017 | 25 | 90 | 22.5 | 30.6 | 0.00 | 0.00 | 0.00 | 76 | 1013.8 |
| 20260510151017 | 24 | 113 | 24.1 | 37.0 | 0.00 | 0.00 | 0.00 | 75 | 1013.6 |
| 20260510150017 | 24 | 113 | 19.3 | 29.0 | 0.00 | 0.00 | 0.00 | 75 | 1013.7 |
| 20260510145017 | 23 | 90 | 16.1 | 24.1 | 0.00 | 0.00 | 0.00 | 77 | 1013.8 |
| 20260510144017 | 23 | 90 | 22.5 | 32.2 | 0.00 | 0.00 | 0.00 | 75 | 1013.8 |
| 20260510143017 | 22 | 90 | 17.7 | 27.4 | 0.00 | 0.00 | 0.00 | 75 | 1014.2 |
| 20260510142017 | 23 | 90 | 17.7 | 27.4 | 0.00 | 0.00 | 0.00 | 74 | 1014.3 |
| 20260510141015 | 22 | 90 | 16.1 | 22.5 | 0.00 | 0.00 | 0.00 | 75 | 1014.3 |
| 20260510140017 | 22 | 90 | 16.1 | 29.0 | 0.00 | 0.00 | 0.00 | 76 | 1014.3 |
| 20260510135017 | 21 | 90 | 16.1 | 25.7 | 0.00 | 0.00 | 0.00 | 78 | 1014.1 |
| 20260510134017 | 21 | 68 | 11.3 | 17.7 | 0.00 | 0.00 | 0.00 | 79 | 1014.4 |
| 20260510133017 | 21 | 68 | 12.9 | 19.3 | 0.00 | 0.00 | 0.00 | 79 | 1014.3 |
| 20260510132017 | 21 | 90 | 14.5 | 22.5 | 0.00 | 0.00 | 0.00 | 80 | 1014.1 |
| 20260510131017 | 20 | 90 | 14.5 | 22.5 | 0.00 | 0.00 | 0.00 | 81 | 1013.8 |
| 20260510130017 | 20 | 68 | 12.9 | 24.1 | 0.00 | 0.00 | 0.00 | 81 | 1014.1 |
| 20260510125017 | 20 | 68 | 14.5 | 20.9 | 0.00 | 0.00 | 0.00 | 81 | 1014.0 |
| 20260510124017 | 20 | 68 | 12.9 | 20.9 | 0.00 | 0.00 | 0.00 | 81 | 1013.8 |
| 20260510123017 | 20 | 90 | 12.9 | 19.3 | 0.00 | 0.00 | 0.00 | 82 | 1013.6 |
| 20260510122016 | 20 | 68 | 14.5 | 22.5 | 0.00 | 0.00 | 0.00 | 82 | 1013.4 |
| 20260510121017 | 20 | 68 | 14.5 | 22.5 | 0.00 | 0.00 | 0.00 | 82 | 1013.4 |
| 20260510120017 | 20 | 68 | 12.9 | 22.5 | 0.00 | 0.00 | 0.00 | 82 | 1013.4 |
| 20260510115017 | 20 | 68 | 17.7 | 27.4 | 0.00 | 0.00 | 0.00 | 82 | 1013.2 |
| 20260510114017 | 21 | 68 | 14.5 | 25.7 | 0.00 | 0.00 | 0.00 | 83 | 1013.1 |
| 20260510113037 | 21 | 68 | 17.7 | 29.0 | 0.00 | 0.00 | 0.00 | 83 | 1013.1 |
| 20260510112017 | 21 | 45 | 19.3 | 32.2 | 0.00 | 0.00 | 0.00 | 84 | 1013.0 |
| 20260510111017 | 22 | 45 | 12.9 | 27.4 | 0.00 | 0.00 | 0.00 | 90 | 1013.0 |
| 20260510110017 | 22 | 68 | 11.3 | 20.9 | 0.00 | 0.00 | 0.00 | 90 | 1013.0 |
| 20260510105037 | 22 | 68 | 9.7 | 17.7 | 0.00 | 0.00 | 0.00 | 90 | 1013.0 |
| 20260510104017 | 22 | 68 | 8.0 | 17.7 | 0.00 | 0.00 | 0.00 | 90 | 1012.9 |
| 20260510103017 | 22 | 68 | 8.0 | 17.7 | 0.00 | 0.00 | 0.00 | 90 | 1012.9 |
| 20260510102017 | 22 | 45 | 9.7 | 17.7 | 0.00 | 0.00 | 0.00 | 90 | 1012.8 |
| 20260510101017 | 22 | 45 | 6.4 | 16.1 | 0.00 | 0.00 | 0.00 | 90 | 1012.6 |
| 20260510100017 | 22 | 45 | 6.4 | 14.5 | 0.00 | 0.00 | 0.00 | 90 | 1012.5 |
| 20260510095017 | 21 | 45 | 4.8 | 12.9 | 0.00 | 0.00 | 0.00 | 90 | 1012.2 |
| 20260510094017 | 21 | 45 | 1.6 | 8.0 | 0.00 | 0.00 | 0.00 | 90 | 1012.1 |
| 20260510093017 | 21 | 23 | 1.6 | 8.0 | 0.00 | 0.00 | 0.00 | 89 | 1012.0 |
| 20260510092017 | 21 | 68 | 3.2 | 6.4 | 0.00 | 0.00 | 0.00 | 88 | 1011.5 |
| 20260510091017 | 21 | 23 | 3.2 | 8.0 | 0.00 | 0.00 | 0.00 | 88 | 1011.5 |
| 20260510090017 | 21 | 0.0 | 3.2 | 0.00 | 0.00 | 0.00 | 87 | 1011.6 | |
| 20260510085016 | 22 | 338 | 1.6 | 4.8 | 0.00 | 0.00 | 0.00 | 87 | 1011.3 |
| 20260510084036 | 22 | 0.0 | 3.2 | 0.00 | 0.00 | 0.00 | 87 | 1011.0 | |
| 20260510083016 | 22 | 0.0 | 1.6 | 0.00 | 0.00 | 0.00 | 87 | 1010.7 | |
| 20260510082016 | 22 | 0.0 | 1.6 | 0.00 | 0.00 | 0.00 | 87 | 1010.3 | |
| 20260510081016 | 22 | 0.0 | 0.0 | 0.00 | 0.00 | 0.00 | 86 | 1010.3 | |
| 20260510080056 | 22 | 113 | 3.2 | 6.4 | 0.00 | 0.00 | 0.00 | 86 | 1010.1 |
| 20260510075016 | 22 | 113 | 4.8 | 9.7 | 0.00 | 0.00 | 0.00 | 86 | 1010.1 |
| 20260510074016 | 22 | 113 | 6.4 | 12.9 | 0.00 | 0.00 | 0.00 | 85 | 1010.1 |
| 20260510073016 | 23 | 113 | 3.2 | 6.4 | 0.00 | 0.00 | 0.00 | 84 | 1010.4 |
| 20260510072016 | 23 | 90 | 6.4 | 12.9 | 0.00 | 0.00 | 0.00 | 83 | 1010.5 |
| 20260510071016 | 23 | 90 | 3.2 | 11.3 | 0.00 | 0.00 | 0.00 | 82 | 1010.8 |
| 20260510070016 | 23 | 90 | 6.4 | 11.3 | 0.00 | 0.00 | 0.00 | 81 | 1010.8 |
| 20260510065016 | 24 | 135 | 3.2 | 11.3 | 0.00 | 0.00 | 0.00 | 80 | 1010.9 |
| 20260510064016 | 24 | 135 | 6.4 | 16.1 | 0.00 | 0.00 | 0.00 | 80 | 1010.3 |
| 20260510063016 | 24 | 135 | 12.9 | 19.3 | 0.00 | 0.00 | 0.00 | 79 | 1009.7 |
| 20260510062016 | 24 | 135 | 12.9 | 17.7 | 0.00 | 0.00 | 0.00 | 77 | 1009.7 |
| 20260510061016 | 24 | 135 | 16.1 | 22.5 | 0.00 | 0.00 | 0.00 | 76 | 1009.4 |
| 20260510060016 | 24 | 135 | 12.9 | 19.3 | 0.00 | 0.00 | 0.00 | 75 | 1009.3 |
| 20260510055036 | 24 | 135 | 14.5 | 22.5 | 0.00 | 0.00 | 0.00 | 75 | 1009.2 |
| 20260510054016 | 24 | 135 | 14.5 | 22.5 | 0.00 | 0.00 | 0.00 | 75 | 1009.1 |
| 20260510053036 | 23 | 135 | 11.3 | 19.3 | 0.00 | 0.00 | 0.00 | 75 | 1009.0 |
| 20260510052016 | 23 | 113 | 8.0 | 16.1 | 0.00 | 0.00 | 0.00 | 74 | 1008.9 |
| 20260510051016 | 23 | 113 | 8.0 | 12.9 | 0.00 | 0.00 | 0.00 | 73 | 1008.8 |
| 20260510050016 | 23 | 113 | 9.7 | 14.5 | 0.00 | 0.00 | 0.00 | 72 | 1008.8 |
| 20260510045016 | 23 | 113 | 11.3 | 16.1 | 0.00 | 0.00 | 0.00 | 73 | 1008.8 |
| 20260510044016 | 23 | 113 | 12.9 | 20.9 | 0.00 | 0.00 | 0.00 | 73 | 1009.1 |
| 20260510043016 | 23 | 113 | 9.7 | 16.1 | 0.00 | 0.00 | 0.00 | 74 | 1009.1 |
| 20260510042016 | 23 | 113 | 11.3 | 17.7 | 0.00 | 0.00 | 0.00 | 74 | 1009.0 |
| 20260510041016 | 23 | 113 | 9.7 | 16.1 | 0.00 | 0.00 | 0.00 | 73 | 1009.2 |
| 20260510040016 | 23 | 90 | 9.7 | 14.5 | 0.00 | 0.00 | 0.00 | 72 | 1009.1 |
| 20260510035036 | 23 | 113 | 8.0 | 12.9 | 0.00 | 0.00 | 0.00 | 71 | 1009.2 |
| 20260510034016 | 23 | 90 | 6.4 | 11.3 | 0.00 | 0.00 | 0.00 | 71 | 1009.3 |
| 20260510033036 | 23 | 90 | 8.0 | 12.9 | 0.00 | 0.00 | 0.00 | 70 | 1009.2 |
| 20260510032016 | 23 | 90 | 8.0 | 12.9 | 0.00 | 0.00 | 0.00 | 70 | 1009.2 |
| 20260510031016 | 23 | 90 | 8.0 | 12.9 | 0.00 | 0.00 | 0.00 | 71 | 1009.0 |
| 20260510030036 | 23 | 90 | 4.8 | 11.3 | 0.00 | 0.00 | 0.00 | 70 | 1008.9 |
| 20260510025056 | 24 | 90 | 4.8 | 9.7 | 0.00 | 0.00 | 0.00 | 70 | 1008.9 |
| 20260510024016 | 24 | 90 | 3.2 | 4.8 | 0.00 | 0.00 | 0.00 | 69 | 1008.7 |
| 20260510023016 | 25 | 90 | 3.2 | 4.8 | 0.00 | 0.00 | 0.00 | 68 | 1008.7 |
| 20260510022016 | 25 | 90 | 3.2 | 4.8 | 0.00 | 0.00 | 0.00 | 67 | 1008.6 |
| 20260510021016 | 25 | 90 | 3.2 | 4.8 | 0.00 | 0.00 | 0.00 | 67 | 1008.4 |
| 20260510020016 | 25 | 90 | 3.2 | 4.8 | 0.00 | 0.00 | 0.00 | 66 | 1008.3 |
| 20260510015016 | 25 | 90 | 3.2 | 4.8 | 0.00 | 0.00 | 0.00 | 66 | 1008.3 |
| 20260510014016 | 26 | 90 | 1.6 | 4.8 | 0.00 | 0.00 | 0.00 | 64 | 1008.1 |
| 20260510013016 | 26 | 90 | 3.2 | 6.4 | 0.00 | 0.00 | 0.00 | 63 | 1007.9 |
| 20260510012016 | 26 | 90 | 3.2 | 6.4 | 0.00 | 0.00 | 0.00 | 62 | 1007.8 |
| 20260510011016 | 27 | 90 | 3.2 | 4.8 | 0.00 | 0.00 | 0.00 | 61 | 1007.8 |
| 20260510010016 | 27 | 90 | 3.2 | 6.4 | 0.00 | 0.00 | 0.00 | 60 | 1007.8 |
| 20260510005016 | 28 | 90 | 3.2 | 6.4 | 0.00 | 0.00 | 0.00 | 59 | 1007.7 |
| 20260510004036 | 28 | 90 | 3.2 | 6.4 | 0.00 | 0.00 | 0.00 | 59 | 1007.7 |
| 20260510003036 | 28 | 90 | 1.6 | 6.4 | 0.00 | 0.00 | 0.00 | 58 | 1007.6 |
| 20260510002016 | 29 | 90 | 1.6 | 4.8 | 0.00 | 0.00 | 0.00 | 56 | 1007.7 |
| 20260510001036 | 29 | 90 | 3.2 | 6.4 | 0.00 | 0.00 | 0.00 | 56 | 1007.7 |
| 20260510000016 | 30 | 90 | 3.2 | 8.0 | 0.00 | 0.00 | 0.00 | 54 | 1007.8 |
| 20260509235016 | 30 | 90 | 3.2 | 11.3 | 0.00 | 0.00 | 0.00 | 54 | 1007.9 |
| 20260509234016 | 30 | 90 | 4.8 | 9.7 | 0.00 | 0.00 | 0.00 | 53 | 1007.8 |
| 20260509233036 | 30 | 135 | 1.6 | 6.4 | 0.00 | 0.00 | 0.00 | 52 | 1007.9 |
| 20260509232016 | 30 | 113 | 1.6 | 6.4 | 0.00 | 0.00 | 0.00 | 50 | 1007.8 |
| 20260509231016 | 30 | 113 | 1.6 | 9.7 | 0.00 | 0.00 | 0.00 | 51 | 1007.9 |
| 20260509230016 | 30 | 113 | 3.2 | 9.7 | 0.00 | 0.00 | 0.00 | 50 | 1008.0 |
| 20260509225016 | 31 | 113 | 6.4 | 11.3 | 0.00 | 0.00 | 0.00 | 50 | 1007.9 |
| 20260509224016 | 31 | 135 | 1.6 | 8.0 | 0.00 | 0.00 | 0.00 | 50 | 1007.9 |
| 20260509223016 | 31 | 113 | 1.6 | 9.7 | 0.00 | 0.00 | 0.00 | 49 | 1008.0 |
| 20260509222016 | 31 | 113 | 4.8 | 9.7 | 0.00 | 0.00 | 0.00 | 49 | 1007.9 |
| 20260509221016 | 31 | 90 | 1.6 | 9.7 | 0.00 | 0.00 | 0.00 | 49 | 1008.0 |
| 20260509220016 | 31 | 68 | 3.2 | 11.3 | 0.00 | 0.00 | 0.00 | 49 | 1008.1 |
| 20260509215016 | 32 | 90 | 4.8 | 11.3 | 0.00 | 0.00 | 0.00 | 50 | 1008.2 |
| 20260509214016 | 32 | 135 | 4.8 | 12.9 | 0.00 | 0.00 | 0.00 | 48 | 1008.2 |
| 20260509213016 | 32 | 0.0 | 1.6 | 0.00 | 0.00 | 0.00 | 46 | 1008.3 | |
| 20260509212016 | 32 | 135 | 1.6 | 4.8 | 0.00 | 0.00 | 0.00 | 47 | 1008.5 |
| 20260509211016 | 32 | 113 | 1.6 | 8.0 | 0.00 | 0.00 | 0.00 | 46 | 1008.6 |
| 20260509210016 | 32 | 90 | 4.8 | 12.9 | 0.00 | 0.00 | 0.00 | 50 | 1008.7 |
| 20260509205016 | 32 | 0.0 | 3.2 | 0.00 | 0.00 | 0.00 | 47 | 1008.8 | |
| 20260509204016 | 32 | 90 | 1.6 | 6.4 | 0.00 | 0.00 | 0.00 | 47 | 1009.0 |